createdAt,value
2019-01-20T00:01:26.104Z,6.70
2019-01-20T00:03:53.514Z,5.43
2019-01-20T00:06:40.376Z,6.07
2019-01-20T00:09:10.043Z,6.13
2019-01-20T00:11:37.276Z,6.27
2019-01-20T00:14:04.659Z,7.33
2019-01-20T00:16:31.915Z,6.60
2019-01-20T00:18:59.155Z,8.90
2019-01-20T00:21:26.519Z,9.27
2019-01-20T00:23:53.755Z,8.53
2019-01-20T00:26:20.996Z,7.63
2019-01-20T00:28:48.267Z,7.87
2019-01-20T00:31:15.492Z,8.10
2019-01-20T00:33:42.793Z,6.93
2019-01-20T00:36:10.051Z,7.03
2019-01-20T00:38:37.347Z,6.87
2019-01-20T00:41:04.590Z,6.50
2019-01-20T00:43:31.792Z,6.10
2019-01-20T00:45:59.095Z,6.50
2019-01-20T00:48:26.307Z,6.20
2019-01-20T00:50:53.536Z,6.70
2019-01-20T00:53:21.213Z,6.50
2019-01-20T00:55:53.779Z,6.37
2019-01-20T00:58:21.114Z,5.43
2019-01-20T01:00:48.452Z,5.80
2019-01-20T01:03:15.668Z,5.63
2019-01-20T01:05:42.937Z,8.53
2019-01-20T01:08:10.531Z,7.83
2019-01-20T01:10:37.932Z,7.17
2019-01-20T01:13:05.450Z,6.33
2019-01-20T01:15:32.719Z,6.23
2019-01-20T01:17:59.935Z,6.60
2019-01-20T01:20:27.210Z,6.57
2019-01-20T01:22:54.430Z,6.60
2019-01-20T01:25:21.783Z,6.93
2019-01-20T01:27:49.047Z,6.03
2019-01-20T01:30:17.340Z,7.27
2019-01-20T01:32:44.556Z,6.83
2019-01-20T01:35:11.900Z,6.70
2019-01-20T01:37:39.122Z,7.10
2019-01-20T01:40:07.131Z,6.60
2019-01-20T01:42:34.389Z,7.00
2019-01-20T01:45:01.615Z,6.50
2019-01-20T01:47:28.844Z,7.17
2019-01-20T01:49:56.060Z,6.67
2019-01-20T01:52:23.292Z,7.20
2019-01-20T01:54:50.496Z,6.20
2019-01-20T01:57:17.837Z,8.23
2019-01-20T01:59:45.120Z,7.20
2019-01-20T02:02:12.333Z,7.13
2019-01-20T02:04:39.584Z,6.67
2019-01-20T02:07:06.874Z,7.07
2019-01-20T02:09:34.124Z,7.00
2019-01-20T02:12:01.349Z,7.27
2019-01-20T02:14:28.551Z,7.20
2019-01-20T02:16:55.840Z,8.13
2019-01-20T02:19:23.047Z,7.77
2019-01-20T02:21:50.356Z,7.77
2019-01-20T02:24:17.575Z,6.87
2019-01-20T02:26:44.841Z,7.37
2019-01-20T02:29:12.131Z,8.60
2019-01-20T02:31:39.348Z,8.07
2019-01-20T02:34:06.552Z,7.53
2019-01-20T02:36:33.811Z,7.73
2019-01-20T02:39:01.072Z,8.20
2019-01-20T02:41:28.301Z,8.23
2019-01-20T02:43:55.534Z,7.87
2019-01-20T02:46:22.747Z,8.40
2019-01-20T02:48:49.992Z,8.30
2019-01-20T02:51:17.216Z,7.67
2019-01-20T02:53:44.526Z,7.50
2019-01-20T02:56:11.734Z,8.07
2019-01-20T02:58:39.071Z,9.17
2019-01-20T03:01:06.278Z,7.80
2019-01-20T03:03:33.499Z,8.93
2019-01-20T03:06:00.761Z,9.13
2019-01-20T03:08:27.979Z,8.03
2019-01-20T03:10:55.221Z,9.07
2019-01-20T03:13:22.458Z,8.67
2019-01-20T03:15:49.754Z,8.80
2019-01-20T03:18:17.035Z,8.23
2019-01-20T03:20:44.332Z,7.97
2019-01-20T03:23:11.577Z,8.87
2019-01-20T03:25:38.944Z,8.67
2019-01-20T03:28:06.162Z,8.03
2019-01-20T03:30:33.404Z,8.80
2019-01-20T03:33:00.880Z,9.30
2019-01-20T03:35:28.217Z,9.23
2019-01-20T03:37:55.560Z,9.00
2019-01-20T03:40:22.802Z,8.67
2019-01-20T03:42:50.166Z,9.27
2019-01-20T03:45:17.701Z,10.33
2019-01-20T03:47:45.070Z,9.97
2019-01-20T03:50:13.417Z,8.53
2019-01-20T03:52:40.759Z,9.43
2019-01-20T03:55:09.772Z,8.70
2019-01-20T03:57:37.036Z,10.33
2019-01-20T04:00:06.303Z,8.63
2019-01-20T04:02:33.762Z,10.20
2019-01-20T04:05:01.076Z,10.03
2019-01-20T04:07:28.454Z,9.23
2019-01-20T04:09:55.712Z,9.40
2019-01-20T04:12:22.983Z,8.90
2019-01-20T04:14:50.411Z,9.77
2019-01-20T04:17:17.721Z,9.57
2019-01-20T04:19:45.101Z,9.90
2019-01-20T04:22:12.521Z,9.07
2019-01-20T04:24:39.856Z,9.60
2019-01-20T04:27:29.694Z,14.63
2019-01-20T04:29:57.059Z,17.00
2019-01-20T04:32:24.337Z,14.47
2019-01-20T04:34:51.799Z,12.23
2019-01-20T04:37:19.084Z,11.93
2019-01-20T04:39:46.356Z,11.50
2019-01-20T04:42:13.639Z,10.30
2019-01-20T04:44:41.092Z,10.13
2019-01-20T04:47:08.339Z,8.70
2019-01-20T04:49:35.602Z,8.17
2019-01-20T04:52:02.991Z,9.00
2019-01-20T04:54:30.357Z,8.13
2019-01-20T04:56:57.704Z,8.80
2019-01-20T04:59:24.987Z,7.47
2019-01-20T05:01:52.288Z,8.33
2019-01-20T05:04:19.601Z,8.67
2019-01-20T05:06:46.952Z,7.97
2019-01-20T05:09:14.311Z,8.63
2019-01-20T05:11:41.716Z,7.57
2019-01-20T05:14:09.051Z,7.73
2019-01-20T05:16:36.313Z,8.17
2019-01-20T05:19:03.604Z,7.90
2019-01-20T05:21:30.908Z,8.70
2019-01-20T05:23:58.140Z,7.70
2019-01-20T05:26:25.480Z,7.50
2019-01-20T05:28:52.731Z,8.33
2019-01-20T05:31:20.081Z,8.43
2019-01-20T05:33:47.344Z,8.03
2019-01-20T05:36:14.739Z,7.63
2019-01-20T05:38:48.105Z,7.60
2019-01-20T05:41:15.390Z,7.87
2019-01-20T05:43:42.767Z,7.87
2019-01-20T05:46:10.167Z,8.33
2019-01-20T05:48:37.436Z,8.30
2019-01-20T05:51:04.700Z,8.57
2019-01-20T05:53:31.957Z,8.10
2019-01-20T05:55:59.223Z,8.20
2019-01-20T05:58:26.557Z,7.47
2019-01-20T06:00:53.807Z,9.10
2019-01-20T06:03:21.052Z,9.13
2019-01-20T06:05:48.291Z,13.80
2019-01-20T06:08:15.542Z,10.77
2019-01-20T06:10:42.936Z,9.60
2019-01-20T06:13:10.207Z,8.83
2019-01-20T06:15:37.483Z,10.03
2019-01-20T06:18:05.056Z,9.37
2019-01-20T06:20:32.395Z,9.03
2019-01-20T06:22:59.640Z,8.90
2019-01-20T06:25:26.888Z,9.57
2019-01-20T06:27:54.245Z,9.20
2019-01-20T06:30:26.740Z,8.63
2019-01-20T06:32:54.057Z,8.53
2019-01-20T06:35:21.282Z,8.63
2019-01-20T06:37:48.603Z,8.97
2019-01-20T06:40:16.266Z,9.03
2019-01-20T06:42:43.547Z,8.83
2019-01-20T06:45:10.903Z,9.00
2019-01-20T06:47:38.171Z,8.87
2019-01-20T06:50:07.943Z,9.33
2019-01-20T06:52:35.274Z,8.87
2019-01-20T06:55:02.923Z,8.80
2019-01-20T06:57:30.348Z,8.50
2019-01-20T06:59:57.687Z,8.90
2019-01-20T07:02:25.021Z,10.30
2019-01-20T07:04:52.367Z,9.47
2019-01-20T07:07:19.634Z,9.20
2019-01-20T07:09:46.984Z,8.40
2019-01-20T07:12:14.210Z,9.77
2019-01-20T07:14:41.468Z,9.77
2019-01-20T07:17:08.864Z,8.87
2019-01-20T07:19:36.216Z,9.40
2019-01-20T07:22:03.466Z,9.53
2019-01-20T07:24:30.718Z,8.40
2019-01-20T07:26:57.980Z,9.57
2019-01-20T07:29:25.227Z,9.30
2019-01-20T07:31:52.537Z,9.10
2019-01-20T07:34:19.876Z,9.20
2019-01-20T07:36:47.120Z,9.40
2019-01-20T07:39:20.786Z,8.23
2019-01-20T07:41:49.123Z,9.53
2019-01-20T07:44:16.392Z,9.73
2019-01-20T07:46:43.638Z,8.70
2019-01-20T07:49:11.084Z,8.87
2019-01-20T07:51:38.409Z,10.03
2019-01-20T07:54:05.738Z,8.47
2019-01-20T07:56:32.982Z,10.37
2019-01-20T07:59:09.572Z,9.80
2019-01-20T08:01:36.798Z,10.03
2019-01-20T08:04:04.022Z,9.20
2019-01-20T08:06:31.226Z,10.20
2019-01-20T08:08:58.463Z,9.37
2019-01-20T08:11:25.683Z,9.97
2019-01-20T08:13:59.223Z,10.20
2019-01-20T08:16:26.953Z,10.23
2019-01-20T08:18:54.343Z,10.37
2019-01-20T08:21:22.627Z,9.57
2019-01-20T08:23:49.830Z,9.70
2019-01-20T08:26:23.254Z,9.93
2019-01-20T08:28:52.588Z,9.33
2019-01-20T08:31:19.815Z,9.00
2019-01-20T08:33:47.439Z,10.03
2019-01-20T08:36:14.675Z,9.93
2019-01-20T08:38:41.876Z,8.93
2019-01-20T08:41:09.191Z,9.13
2019-01-20T08:43:36.871Z,9.90
2019-01-20T08:46:30.442Z,9.63
2019-01-20T08:48:58.527Z,10.07
2019-01-20T08:51:29.512Z,9.40
2019-01-20T08:54:01.108Z,10.20
2019-01-20T08:56:28.337Z,10.27
2019-01-20T08:58:55.792Z,10.73
2019-01-20T09:01:23.163Z,10.20
2019-01-20T09:03:50.416Z,9.87
2019-01-20T09:06:17.949Z,11.20
2019-01-20T09:08:45.661Z,9.20
2019-01-20T09:11:12.914Z,26.17
2019-01-20T09:13:40.487Z,12.67
2019-01-20T09:16:07.850Z,11.10
2019-01-20T09:18:35.404Z,11.83
2019-01-20T09:21:02.853Z,10.73
2019-01-20T09:23:30.528Z,10.07
2019-01-20T09:26:04.070Z,10.17
2019-01-20T09:28:31.600Z,10.67
2019-01-20T09:30:58.982Z,10.03
2019-01-20T09:33:26.449Z,10.97
2019-01-20T09:35:57.730Z,11.70
2019-01-20T09:38:25.654Z,11.87
2019-01-20T09:40:54.258Z,10.37
2019-01-20T09:43:21.734Z,11.00
2019-01-20T09:45:54.109Z,11.73
2019-01-20T09:48:23.884Z,11.77
2019-01-20T09:50:51.418Z,11.50
2019-01-20T09:53:19.927Z,11.80
2019-01-20T09:55:47.578Z,11.53
2019-01-20T09:58:15.275Z,11.57
2019-01-20T10:00:42.715Z,11.90
2019-01-20T10:03:31.478Z,10.63
2019-01-20T10:08:57.337Z,11.50
2019-01-20T10:11:25.043Z,12.43
2019-01-20T10:13:54.919Z,11.33
2019-01-20T10:16:25.895Z,11.83
2019-01-20T10:18:53.874Z,11.80
2019-01-20T10:21:24.800Z,12.23
2019-01-20T10:23:52.956Z,12.13
2019-01-20T10:26:20.942Z,13.03
2019-01-20T10:28:52.442Z,13.83
2019-01-20T10:31:23.399Z,11.80
2019-01-20T10:33:52.606Z,14.20
2019-01-20T10:36:20.399Z,13.00
2019-01-20T10:38:48.159Z,12.63
2019-01-20T10:41:16.067Z,17.97
2019-01-20T10:43:46.858Z,20.00
2019-01-20T10:46:14.651Z,12.47
2019-01-20T10:48:42.608Z,13.83
2019-01-20T10:51:17.465Z,12.67
2019-01-20T10:53:44.824Z,12.50
2019-01-20T10:56:12.422Z,12.07
2019-01-20T10:58:40.020Z,12.30
2019-01-20T11:01:07.676Z,12.87
2019-01-20T11:03:37.051Z,13.33
2019-01-20T11:06:04.524Z,12.90
2019-01-20T11:08:31.895Z,12.40
2019-01-20T11:10:59.193Z,12.73
2019-01-20T11:13:26.483Z,13.00
2019-01-20T11:15:56.476Z,12.47
2019-01-20T11:18:23.876Z,13.57
2019-01-20T11:20:51.194Z,12.13
2019-01-20T11:23:20.693Z,12.90
2019-01-20T11:25:48.111Z,13.57
2019-01-20T11:28:15.425Z,12.83
2019-01-20T11:30:42.748Z,13.03
2019-01-20T11:33:10.227Z,13.30
2019-01-20T11:35:37.657Z,23.20
2019-01-20T11:38:05.113Z,18.90
2019-01-20T11:40:32.637Z,19.00
2019-01-20T11:43:00.050Z,14.60
2019-01-20T11:45:28.676Z,15.23
2019-01-20T11:47:58.351Z,13.77
2019-01-20T11:50:25.861Z,15.63
2019-01-20T11:52:53.184Z,14.57
2019-01-20T11:55:21.471Z,13.63
2019-01-20T11:57:49.599Z,14.20
2019-01-20T12:00:20.551Z,14.87
2019-01-20T12:02:48.015Z,13.77
2019-01-20T12:05:17.072Z,13.60
2019-01-20T12:07:45.090Z,14.40
2019-01-20T12:10:13.387Z,15.43
2019-01-20T12:12:41.956Z,14.47
2019-01-20T12:15:10.414Z,14.27
2019-01-20T12:17:37.881Z,14.67
2019-01-20T12:20:06.936Z,14.37
2019-01-20T12:22:34.326Z,14.60
2019-01-20T12:25:01.627Z,13.80
2019-01-20T12:27:28.959Z,14.73
2019-01-20T12:29:56.263Z,15.40
2019-01-20T12:32:23.702Z,14.60
2019-01-20T12:34:51.076Z,16.77
2019-01-20T12:37:18.368Z,15.23
2019-01-20T12:39:45.839Z,16.93
2019-01-20T12:42:13.856Z,16.03
2019-01-20T12:44:47.538Z,15.60
2019-01-20T12:47:14.986Z,15.43
2019-01-20T12:49:42.400Z,14.73
2019-01-20T12:52:09.761Z,16.57
2019-01-20T12:54:37.266Z,15.93
2019-01-20T12:57:04.756Z,15.87
2019-01-20T12:59:32.106Z,16.83
2019-01-20T13:01:59.379Z,17.53
2019-01-20T13:04:26.788Z,66.93
2019-01-20T13:06:54.645Z,21.77
2019-01-20T13:09:24.726Z,31.60
2019-01-20T13:11:52.184Z,28.60
2019-01-20T13:14:19.539Z,20.87
2019-01-20T13:16:46.852Z,17.80
2019-01-20T13:19:14.263Z,16.50
2019-01-20T13:21:41.734Z,15.90
2019-01-20T13:24:12.437Z,16.73
2019-01-20T13:26:39.883Z,15.97
2019-01-20T13:29:10.434Z,17.77
2019-01-20T13:31:37.893Z,17.07
2019-01-20T13:34:05.292Z,17.53
2019-01-20T13:36:33.893Z,16.13
2019-01-20T13:39:01.491Z,16.93
2019-01-20T13:41:30.441Z,16.07
2019-01-20T13:43:58.006Z,16.97
2019-01-20T13:46:31.293Z,15.97
2019-01-20T13:48:58.527Z,16.07
2019-01-20T13:51:25.752Z,17.07
2019-01-20T13:53:53.035Z,18.27
2019-01-20T13:56:20.251Z,17.87
2019-01-20T13:58:47.845Z,17.00
2019-01-20T14:01:15.080Z,16.87
2019-01-20T14:03:42.336Z,15.60
2019-01-20T14:06:09.732Z,16.40
2019-01-20T14:08:44.174Z,16.40
2019-01-20T14:11:09.315Z,15.63
2019-01-20T14:13:37.408Z,16.80
2019-01-20T14:16:04.775Z,15.97
2019-01-20T14:18:32.226Z,15.87
2019-01-20T14:20:59.577Z,17.10
2019-01-20T14:23:27.219Z,16.93
2019-01-20T14:25:54.617Z,16.80
2019-01-20T14:28:21.944Z,15.50
2019-01-20T14:30:49.158Z,15.63
2019-01-20T14:33:16.607Z,15.80
2019-01-20T14:35:43.879Z,15.90
2019-01-20T14:38:13.304Z,21.67
2019-01-20T14:40:40.630Z,23.57
2019-01-20T14:43:08.080Z,20.73
2019-01-20T14:45:35.344Z,17.40
2019-01-20T14:48:03.413Z,17.03
2019-01-20T14:50:30.845Z,15.87
2019-01-20T14:52:58.185Z,15.67
2019-01-20T14:55:25.556Z,15.93
2019-01-20T14:57:52.966Z,17.47
2019-01-20T15:00:33.488Z,16.20
2019-01-20T15:03:00.887Z,17.73
2019-01-20T15:05:28.530Z,15.97
2019-01-20T15:07:55.979Z,15.17
2019-01-20T15:10:29.420Z,14.73
2019-01-20T15:12:56.937Z,15.70
2019-01-20T15:15:36.426Z,14.90
2019-01-20T15:18:04.926Z,16.20
2019-01-20T15:20:35.411Z,16.27
2019-01-20T15:23:03.116Z,15.87
2019-01-20T15:25:30.467Z,16.07
2019-01-20T15:27:58.204Z,15.80
2019-01-20T15:30:26.363Z,16.57
2019-01-20T15:32:53.851Z,17.47
2019-01-20T15:35:22.092Z,17.87
2019-01-20T15:37:49.747Z,17.20
2019-01-20T15:40:18.671Z,17.33
2019-01-20T15:42:46.176Z,16.20
2019-01-20T15:45:16.501Z,16.37
2019-01-20T15:47:43.810Z,17.17
2019-01-20T15:50:12.943Z,16.17
2019-01-20T15:52:40.374Z,16.90
2019-01-20T15:55:08.007Z,15.70
2019-01-20T15:57:35.423Z,16.03
2019-01-20T16:00:04.022Z,15.63
2019-01-20T16:02:34.532Z,17.03
2019-01-20T16:05:01.830Z,17.00
2019-01-20T16:07:36.776Z,16.53
2019-01-20T16:10:04.738Z,15.53
2019-01-20T16:12:32.067Z,16.60
2019-01-20T16:14:59.312Z,16.03
2019-01-20T16:17:27.648Z,16.17
2019-01-20T16:19:55.533Z,16.80
2019-01-20T16:22:23.215Z,18.70
2019-01-20T16:24:50.657Z,26.07
2019-01-20T16:27:18.440Z,29.93
2019-01-20T16:29:45.901Z,24.07
2019-01-20T16:32:13.196Z,24.63
2019-01-20T16:34:40.479Z,25.20
2019-01-20T16:37:07.935Z,27.17
2019-01-20T16:39:35.336Z,27.23
2019-01-20T16:42:03.699Z,30.57
2019-01-20T16:44:32.692Z,28.30
2019-01-20T16:47:00.270Z,27.67
2019-01-20T16:49:34.068Z,24.97
2019-01-20T16:52:01.318Z,24.33
2019-01-20T16:54:30.289Z,23.17
2019-01-20T16:56:57.745Z,21.40
2019-01-20T16:59:27.357Z,22.17
2019-01-20T17:01:57.186Z,21.50
2019-01-20T17:04:25.223Z,23.43
2019-01-20T17:06:59.055Z,22.63
2019-01-20T17:09:29.183Z,22.20
2019-01-20T17:12:01.716Z,20.30
2019-01-20T17:14:29.286Z,20.57
2019-01-20T17:16:56.651Z,21.10
2019-01-20T17:19:23.879Z,20.60
2019-01-20T17:21:51.222Z,20.63
2019-01-20T17:24:18.794Z,30.07
2019-01-20T17:26:46.124Z,46.73
2019-01-20T17:29:13.390Z,27.27
2019-01-20T17:31:40.670Z,24.40
2019-01-20T17:34:08.132Z,30.30
2019-01-20T17:36:35.552Z,32.03
2019-01-20T17:39:11.903Z,32.57
2019-01-20T17:41:34.996Z,29.03
2019-01-20T17:44:02.238Z,27.73
2019-01-20T17:46:29.511Z,26.67
2019-01-20T17:48:56.743Z,23.30
2019-01-20T17:51:24.515Z,69.70
2019-01-20T17:53:51.853Z,41.80
2019-01-20T17:56:19.150Z,41.77
2019-01-20T17:58:46.368Z,38.07
2019-01-20T18:01:15.678Z,32.27
2019-01-20T18:03:43.007Z,22.03
2019-01-20T18:06:10.294Z,26.60
2019-01-20T18:08:37.534Z,24.40
2019-01-20T18:11:09.856Z,24.73
2019-01-20T18:13:37.485Z,23.67
2019-01-20T18:16:06.035Z,21.33
2019-01-20T18:18:34.060Z,23.73
2019-01-20T18:21:02.050Z,23.80
2019-01-20T18:23:33.211Z,23.93
2019-01-20T18:26:06.280Z,24.47
2019-01-20T18:28:36.623Z,23.00
2019-01-20T18:31:17.583Z,25.67
2019-01-20T18:33:45.476Z,22.63
2019-01-20T18:36:24.668Z,23.53
2019-01-20T18:38:55.215Z,21.60
2019-01-20T18:41:22.813Z,19.60
2019-01-20T18:43:50.500Z,21.70
2019-01-20T18:46:21.524Z,20.03
2019-01-20T18:48:51.639Z,22.53
2019-01-20T18:51:18.979Z,20.03
2019-01-20T18:53:48.268Z,21.80
2019-01-20T18:56:15.703Z,19.73
2019-01-20T18:58:42.924Z,21.87
2019-01-20T19:01:11.312Z,21.57
2019-01-20T19:03:38.664Z,22.80
2019-01-20T19:06:06.068Z,22.83
2019-01-20T19:08:33.416Z,31.83
2019-01-20T19:11:00.813Z,40.27
2019-01-20T19:13:28.048Z,37.43
2019-01-20T19:15:57.420Z,38.80
2019-01-20T19:18:24.717Z,34.27
2019-01-20T19:20:51.937Z,30.80
2019-01-20T19:23:19.199Z,28.23
2019-01-20T19:25:46.467Z,25.40
2019-01-20T19:28:13.684Z,24.53
2019-01-20T19:30:46.929Z,22.97
2019-01-20T19:33:14.211Z,21.67
2019-01-20T19:35:42.062Z,23.03
2019-01-20T19:38:09.558Z,23.13
2019-01-20T19:40:37.139Z,23.63
2019-01-20T19:43:04.505Z,25.87
2019-01-20T19:45:32.175Z,25.20
2019-01-20T19:47:59.729Z,24.70
2019-01-20T19:50:27.019Z,24.27
2019-01-20T19:52:54.407Z,23.30
2019-01-20T19:55:31.184Z,23.27
2019-01-20T19:57:58.508Z,23.30
2019-01-20T20:00:25.965Z,23.97
2019-01-20T20:02:53.503Z,23.13
2019-01-20T20:05:21.595Z,26.27
2019-01-20T20:07:49.891Z,24.03
2019-01-20T20:10:19.600Z,25.30
2019-01-20T20:12:46.859Z,25.33
2019-01-20T20:15:16.876Z,25.90
2019-01-20T20:17:44.192Z,23.60
2019-01-20T20:20:29.954Z,25.67
2019-01-20T20:22:57.276Z,26.33
2019-01-20T20:25:25.571Z,24.17
2019-01-20T20:27:53.059Z,25.27
2019-01-20T20:30:24.320Z,25.37
2019-01-20T20:32:52.135Z,23.40
2019-01-20T20:35:19.573Z,22.73
2019-01-20T20:37:47.179Z,24.07
2019-01-20T20:40:15.808Z,23.47
2019-01-20T20:42:45.827Z,22.37
2019-01-20T20:45:17.266Z,22.33
2019-01-20T20:47:44.843Z,22.60
2019-01-20T20:50:13.597Z,22.27
2019-01-20T20:52:45.980Z,21.90
2019-01-20T20:55:10.661Z,23.47
2019-01-20T20:57:38.434Z,24.77
2019-01-20T21:00:10.321Z,26.87
2019-01-20T21:02:37.885Z,30.17
2019-01-20T21:05:06.105Z,30.73
2019-01-20T21:07:39.500Z,30.10
2019-01-20T21:10:10.826Z,28.63
2019-01-20T21:12:38.431Z,27.57
2019-01-20T21:15:08.076Z,27.73
2019-01-20T21:17:35.648Z,24.93
2019-01-20T21:20:06.215Z,24.67
2019-01-20T21:22:33.598Z,24.87
2019-01-20T21:25:10.364Z,22.53
2019-01-20T21:27:37.837Z,23.83
2019-01-20T21:30:09.024Z,23.20
2019-01-20T21:32:36.547Z,23.90
2019-01-20T21:35:04.279Z,24.43
2019-01-20T21:37:32.068Z,24.57
2019-01-20T21:40:10.001Z,24.03
2019-01-20T21:42:38.722Z,23.23
2019-01-20T21:45:07.115Z,26.67
2019-01-20T21:47:47.952Z,23.27
2019-01-20T21:50:20.807Z,25.53
2019-01-20T21:52:48.187Z,23.83
2019-01-20T21:55:15.533Z,22.60
2019-01-20T21:57:42.873Z,24.13
2019-01-20T22:00:12.706Z,22.33
2019-01-20T22:02:40.605Z,24.20
2019-01-20T22:05:08.612Z,23.87
2019-01-20T22:07:35.879Z,22.73
2019-01-20T22:10:04.572Z,23.87
2019-01-20T22:12:31.803Z,23.20
2019-01-20T22:14:59.040Z,23.03
2019-01-20T22:17:28.959Z,22.57
2019-01-20T22:19:56.195Z,23.13
2019-01-20T22:22:25.978Z,21.97
2019-01-20T22:24:53.491Z,23.77
2019-01-20T22:27:20.782Z,23.00
2019-01-20T22:29:48.103Z,23.63
2019-01-20T22:32:15.344Z,24.13
2019-01-20T22:34:43.656Z,21.40
2019-01-20T22:37:10.960Z,23.67
2019-01-20T22:39:38.287Z,23.37
2019-01-20T22:42:05.714Z,24.03
2019-01-20T22:44:33.053Z,23.20
2019-01-20T22:47:00.638Z,23.47
2019-01-20T22:49:27.936Z,23.93
2019-01-20T22:51:55.188Z,24.43
2019-01-20T22:54:22.417Z,21.80
2019-01-20T22:56:49.651Z,24.13
2019-01-20T22:59:16.899Z,23.17
2019-01-20T23:01:44.135Z,23.07
2019-01-20T23:04:11.387Z,25.73
2019-01-20T23:06:38.642Z,23.80
2019-01-20T23:09:06.947Z,25.10
2019-01-20T23:11:34.407Z,24.57
2019-01-20T23:14:01.751Z,24.03
2019-01-20T23:16:29.008Z,24.17
2019-01-20T23:18:56.241Z,22.83
2019-01-20T23:21:23.500Z,21.73
2019-01-20T23:23:50.745Z,23.97
2019-01-20T23:26:17.994Z,23.50
2019-01-20T23:28:45.350Z,23.60
2019-01-20T23:31:13.071Z,22.77
2019-01-20T23:33:40.403Z,22.23
2019-01-20T23:36:07.665Z,22.20
2019-01-20T23:38:38.190Z,22.50
2019-01-20T23:41:05.414Z,21.80
2019-01-20T23:43:32.659Z,21.33
2019-01-20T23:45:59.912Z,22.03
2019-01-20T23:48:27.183Z,22.50
2019-01-20T23:50:54.467Z,23.90
2019-01-20T23:53:21.947Z,22.90
2019-01-20T23:55:49.192Z,23.13
2019-01-20T23:58:16.505Z,23.83
